Terminal Aerodrome Forecast
Issued by NWS Sioux Falls, SD

Home | Current Version | Previous Version | Graphics & Text | Print | Product List | Glossary Off
Versions: 1 2 3 4 5 6 7 8 9 10 11 12 13 14 15 16

000
FTUS43 KFSD 290905 AAA
TAFHON
TAF AMD
KHON 290905Z 2909/3006 28011KT P6SM SKC
     FM291100 31017G24KT P6SM BKN050
     FM291300 32026G37KT P6SM BKN020
     FM291500 32028G38KT P6SM SCT030
     FM292200 32020G27KT P6SM SKC
     FM300000 31010KT P6SM SKC
     FM300300 23005KT P6SM SKC=

USA.gov is the U.S. government's official web portal to all federal, state and local government web resources and services.